Share

Louann, AR (71751)

South Arkansas Regional At Goodwin (KELD) Elev 276 ft | 33.22 °N, 92.81 °W | Change Station

Current weather conditions updated 47 minutes ago

Mostly Cloudy
Mostly Cloudy
62 °F
Feels Like 62 °F
N
4
Wind Variable Wind from SSW
Sunrise 6:33 AM
Sunset 7:46 PM
Moon Waning Gibbous

Today is forecast to be nearly the same temperature as yesterday. Thunderstorms tonight.

Pressure 30.04 in
Visibility 10.0 miles
Clouds Scattered Clouds 9500 ft
Mostly Cloudy 11000 ft
Dew Point 56 °F
Humidity 80%
Rainfall 0.00 in
Snow Depth Not available.
UV 0 out of 16
Pollen 8.20 out of 12
Air Quality Not available.
Flu Activity Sporadic
METAR KELD 211053Z AUTO 20003KT 10SM SCT095 BKN110 17/13 A3004 RMK AO2 SLP171 T01670133

More Conditions Fewer Conditions

Pressure 30.04 in
Visibility 10.0 miles
Clouds Scattered Clouds 9500 ft
Mostly Cloudy 11000 ft
Dew Point 56 °F
Humidity 80%
Rainfall 0.00 in
Snow Depth Not available.
UV 0 out of 16
Pollen 8.20 out of 12
Air Quality Not available.
Flu Activity Sporadic
METAR KELD 211053Z AUTO 20003KT 10SM SCT095 BKN110 17/13 A3004 RMK AO2 SLP171 T01670133

More Conditions Fewer Conditions

10-Day Weather Forecast

Almanac

Astronomy

Apr. 21, 2014 Rise Set
Actual Time 6:33 AM CDT 7:46 PM CDT
Civil Twilight 6:07 AM CDT 8:12 PM CDT
Nautical Twilight 5:37 AM CDT 8:43 PM CDT
Astronomical Twilight 5:05 AM CDT 9:15 PM CDT
Moon 1:12 AM CDT 12:04 PM CDT
Length of Visible Light 14h 04m
Length of Day
13h 12m
Tomorrow will be 1m 54s longer.
Waning Gibbous, 60% of the Moon is Illuminated
Today
Waning Gibbous
Apr 22
Last Quarter
Apr 29
New
May 6
First Quarter
May 14
Full

Today's Extremes

State Highs State Lows

Community

  • Snowy Robin
    Snowy Robin
  • Sun Pillar and Geese
    Sun Pillar and Geese
  • Showers on the Way
    Showers on the Way
  • Easter Morning Fog
    Easter Morning Fog
  • Easter Dance
    Easter Dance

WunderPhotos

Upload Photos

1,703,595 photos uploaded!

Nearby

Snow Depth

Station Depth Elevation
No new snow has been reported.

Coastal Water Temperatures

Place Temperature
No Stations Reporting

Earthquake Activity

City Distance Mag. Time & Date
No recent earthquake activity has been reported nearby.
Minimum magnitude displayed is 2.5.

Nearby Weather Stations

Station Location Temp. Dew Point Humidity Wind Precip. Elev Updated Type
MesoWest ELLIOT , Louann, AR 63 °F - - North  at  - 0.00 in / hr 229 ft 3:35 AM CDT MADIS
MesoWest NORPLT , Norphlet, AR 57 °F - - North  at  - 0.00 in / hr 117 ft 4:25 AM CDT MADIS
MesoWest CAMDEN , Camden, AR 64 °F - - North  at  - 0.00 in / hr 122 ft 3:15 AM CDT MADIS
MesoWest MCNEIL , McNeil, AR 58 °F - - North  at  - 0.00 in / hr 216 ft 4:00 AM CDT MADIS

Show More Stations Show Fewer Stations

What do you think?

We're not finished. Please let us know what you like, what you don't like, and what you are still missing.